sensor_id;sensor_type;location;lat;lon;timestamp;pressure;altitude;pressure_sealevel;temperature
45850;BMP180;10739;52.198;20.908;2023-05-16T00:01:54;99510.00;;;15.70
45850;BMP180;10739;52.198;20.908;2023-05-16T00:04:21;99511.00;;;15.20
45850;BMP180;10739;52.198;20.908;2023-05-16T00:06:47;99507.00;;;15.40
45850;BMP180;10739;52.198;20.908;2023-05-16T00:09:13;99505.00;;;15.50
45850;BMP180;10739;52.198;20.908;2023-05-16T00:11:40;99506.00;;;15.20
45850;BMP180;10739;52.198;20.908;2023-05-16T00:14:06;99513.00;;;15.20
45850;BMP180;10739;52.198;20.908;2023-05-16T00:16:32;99502.00;;;15.20
45850;BMP180;10739;52.198;20.908;2023-05-16T00:19:01;99507.00;;;15.30
45850;BMP180;10739;52.198;20.908;2023-05-16T00:21:29;99508.00;;;15.50
45850;BMP180;10739;52.198;20.908;2023-05-16T00:23:56;99516.00;;;15.50
45850;BMP180;10739;52.198;20.908;2023-05-16T00:26:23;99504.00;;;15.80
45850;BMP180;10739;52.198;20.908;2023-05-16T00:28:49;99503.00;;;15.90
45850;BMP180;10739;52.198;20.908;2023-05-16T00:31:15;99502.00;;;16.00
45850;BMP180;10739;52.198;20.908;2023-05-16T00:33:41;99508.00;;;15.80
45850;BMP180;10739;52.198;20.908;2023-05-16T00:36:08;99507.00;;;15.80
45850;BMP180;10739;52.198;20.908;2023-05-16T00:38:34;99510.00;;;15.80
45850;BMP180;10739;52.198;20.908;2023-05-16T00:41:00;99505.00;;;15.80
45850;BMP180;10739;52.198;20.908;2023-05-16T00:43:27;99506.00;;;15.40
45850;BMP180;10739;52.198;20.908;2023-05-16T00:45:53;99516.00;;;15.30
45850;BMP180;10739;52.198;20.908;2023-05-16T00:48:19;99509.00;;;15.60
45850;BMP180;10739;52.198;20.908;2023-05-16T00:50:46;99502.00;;;15.70
45850;BMP180;10739;52.198;20.908;2023-05-16T00:53:12;99511.00;;;15.60
45850;BMP180;10739;52.198;20.908;2023-05-16T00:55:38;99515.00;;;14.80
45850;BMP180;10739;52.198;20.908;2023-05-16T00:58:06;99504.00;;;14.80
45850;BMP180;10739;52.198;20.908;2023-05-16T01:00:32;99503.00;;;14.90
45850;BMP180;10739;52.198;20.908;2023-05-16T01:02:59;99501.00;;;15.40
45850;BMP180;10739;52.198;20.908;2023-05-16T01:05:27;99501.00;;;15.10
45850;BMP180;10739;52.198;20.908;2023-05-16T01:07:53;99502.00;;;14.80
45850;BMP180;10739;52.198;20.908;2023-05-16T01:10:19;99503.00;;;14.90
45850;BMP180;10739;52.198;20.908;2023-05-16T01:15:49;99519.00;;;15.40
45850;BMP180;10739;52.198;20.908;2023-05-16T01:21:48;99513.00;;;15.10
45850;BMP180;10739;52.198;20.908;2023-05-16T01:27:38;99525.00;;;14.50
45850;BMP180;10739;52.198;20.908;2023-05-16T01:30:17;99532.00;;;14.90
45850;BMP180;10739;52.198;20.908;2023-05-16T01:32:43;99529.00;;;14.60
45850;BMP180;10739;52.198;20.908;2023-05-16T01:35:14;99534.00;;;15.10
45850;BMP180;10739;52.198;20.908;2023-05-16T01:40:49;99544.00;;;14.80
45850;BMP180;10739;52.198;20.908;2023-05-16T01:43:28;99549.00;;;15.00
45850;BMP180;10739;52.198;20.908;2023-05-16T01:46:09;99545.00;;;14.70
45850;BMP180;10739;52.198;20.908;2023-05-16T01:48:47;99535.00;;;14.60
45850;BMP180;10739;52.198;20.908;2023-05-16T01:51:20;99543.00;;;14.90
45850;BMP180;10739;52.198;20.908;2023-05-16T01:53:51;99542.00;;;14.60
45850;BMP180;10739;52.198;20.908;2023-05-16T01:56:18;99549.00;;;14.80
45850;BMP180;10739;52.198;20.908;2023-05-16T01:58:48;99562.00;;;15.00
45850;BMP180;10739;52.198;20.908;2023-05-16T02:01:16;99552.00;;;14.90
45850;BMP180;10739;52.198;20.908;2023-05-16T02:03:42;99554.00;;;14.70
45850;BMP180;10739;52.198;20.908;2023-05-16T02:06:08;99557.00;;;14.70
45850;BMP180;10739;52.198;20.908;2023-05-16T02:08:35;99554.00;;;14.80
45850;BMP180;10739;52.198;20.908;2023-05-16T02:11:01;99553.00;;;14.70
45850;BMP180;10739;52.198;20.908;2023-05-16T02:13:27;99552.00;;;14.90
45850;BMP180;10739;52.198;20.908;2023-05-16T02:15:53;99563.00;;;14.90
45850;BMP180;10739;52.198;20.908;2023-05-16T02:18:20;99561.00;;;14.80
45850;BMP180;10739;52.198;20.908;2023-05-16T02:20:49;99555.00;;;14.70
45850;BMP180;10739;52.198;20.908;2023-05-16T02:23:15;99557.00;;;14.70
45850;BMP180;10739;52.198;20.908;2023-05-16T02:25:42;99565.00;;;15.00
45850;BMP180;10739;52.198;20.908;2023-05-16T02:28:08;99567.00;;;14.70
45850;BMP180;10739;52.198;20.908;2023-05-16T02:30:35;99567.00;;;14.50
45850;BMP180;10739;52.198;20.908;2023-05-16T02:33:01;99567.00;;;14.50
45850;BMP180;10739;52.198;20.908;2023-05-16T02:35:27;99568.00;;;14.70
45850;BMP180;10739;52.198;20.908;2023-05-16T02:37:54;99571.00;;;14.70
45850;BMP180;10739;52.198;20.908;2023-05-16T02:40:21;99566.00;;;14.70
45850;BMP180;10739;52.198;20.908;2023-05-16T02:42:47;99571.00;;;14.50
45850;BMP180;10739;52.198;20.908;2023-05-16T02:45:13;99575.00;;;14.50
45850;BMP180;10739;52.198;20.908;2023-05-16T02:47:40;99564.00;;;14.50
45850;BMP180;10739;52.198;20.908;2023-05-16T02:50:06;99569.00;;;14.50
45850;BMP180;10739;52.198;20.908;2023-05-16T02:52:33;99574.00;;;14.30
45850;BMP180;10739;52.198;20.908;2023-05-16T02:54:59;99569.00;;;14.20
45850;BMP180;10739;52.198;20.908;2023-05-16T02:57:25;99577.00;;;14.30
45850;BMP180;10739;52.198;20.908;2023-05-16T02:59:52;99566.00;;;14.80
45850;BMP180;10739;52.198;20.908;2023-05-16T03:02:18;99573.00;;;14.50
45850;BMP180;10739;52.198;20.908;2023-05-16T03:04:44;99576.00;;;14.20
45850;BMP180;10739;52.198;20.908;2023-05-16T03:07:10;99576.00;;;14.30
45850;BMP180;10739;52.198;20.908;2023-05-16T03:09:37;99568.00;;;14.20
45850;BMP180;10739;52.198;20.908;2023-05-16T03:12:04;99577.00;;;14.20
45850;BMP180;10739;52.198;20.908;2023-05-16T03:14:30;99568.00;;;14.30
45850;BMP180;10739;52.198;20.908;2023-05-16T03:16:56;99578.00;;;14.20
45850;BMP180;10739;52.198;20.908;2023-05-16T03:19:23;99570.00;;;14.10
45850;BMP180;10739;52.198;20.908;2023-05-16T03:21:49;99578.00;;;14.20
45850;BMP180;10739;52.198;20.908;2023-05-16T03:24:15;99583.00;;;14.40
45850;BMP180;10739;52.198;20.908;2023-05-16T03:26:41;99581.00;;;14.30
45850;BMP180;10739;52.198;20.908;2023-05-16T03:29:08;99577.00;;;14.30
45850;BMP180;10739;52.198;20.908;2023-05-16T03:31:34;99578.00;;;14.20
45850;BMP180;10739;52.198;20.908;2023-05-16T03:34:01;99585.00;;;14.60
45850;BMP180;10739;52.198;20.908;2023-05-16T03:36:29;99589.00;;;14.40
45850;BMP180;10739;52.198;20.908;2023-05-16T03:38:55;99582.00;;;13.90
45850;BMP180;10739;52.198;20.908;2023-05-16T03:41:21;99575.00;;;14.10
45850;BMP180;10739;52.198;20.908;2023-05-16T03:43:47;99575.00;;;14.50
45850;BMP180;10739;52.198;20.908;2023-05-16T03:46:14;99589.00;;;14.20
45850;BMP180;10739;52.198;20.908;2023-05-16T03:48:40;99581.00;;;13.80
45850;BMP180;10739;52.198;20.908;2023-05-16T03:51:06;99579.00;;;14.70
45850;BMP180;10739;52.198;20.908;2023-05-16T03:53:33;99586.00;;;14.30
45850;BMP180;10739;52.198;20.908;2023-05-16T03:55:59;99583.00;;;14.70
45850;BMP180;10739;52.198;20.908;2023-05-16T03:58:25;99588.00;;;14.90
45850;BMP180;10739;52.198;20.908;2023-05-16T04:00:51;99590.00;;;14.80
45850;BMP180;10739;52.198;20.908;2023-05-16T04:03:18;99589.00;;;14.40
45850;BMP180;10739;52.198;20.908;2023-05-16T04:05:44;99586.00;;;14.80
45850;BMP180;10739;52.198;20.908;2023-05-16T04:08:10;99591.00;;;14.80
45850;BMP180;10739;52.198;20.908;2023-05-16T04:10:36;99587.00;;;14.60
45850;BMP180;10739;52.198;20.908;2023-05-16T04:13:03;99585.00;;;15.20
45850;BMP180;10739;52.198;20.908;2023-05-16T04:15:29;99587.00;;;15.40
45850;BMP180;10739;52.198;20.908;2023-05-16T04:17:55;99590.00;;;15.10
45850;BMP180;10739;52.198;20.908;2023-05-16T04:20:22;99595.00;;;15.10
45850;BMP180;10739;52.198;20.908;2023-05-16T04:22:48;99590.00;;;15.20
45850;BMP180;10739;52.198;20.908;2023-05-16T04:25:15;99593.00;;;15.40
45850;BMP180;10739;52.198;20.908;2023-05-16T04:27:41;99588.00;;;15.40
45850;BMP180;10739;52.198;20.908;2023-05-16T04:30:08;99602.00;;;14.90
45850;BMP180;10739;52.198;20.908;2023-05-16T04:32:36;99585.00;;;14.90
45850;BMP180;10739;52.198;20.908;2023-05-16T04:35:03;99592.00;;;15.40
45850;BMP180;10739;52.198;20.908;2023-05-16T04:37:29;99601.00;;;15.50
45850;BMP180;10739;52.198;20.908;2023-05-16T04:39:56;99600.00;;;15.30
45850;BMP180;10739;52.198;20.908;2023-05-16T04:42:22;99597.00;;;15.50
45850;BMP180;10739;52.198;20.908;2023-05-16T04:44:49;99596.00;;;16.20
45850;BMP180;10739;52.198;20.908;2023-05-16T04:47:15;99604.00;;;15.90
45850;BMP180;10739;52.198;20.908;2023-05-16T04:49:41;99600.00;;;15.80
45850;BMP180;10739;52.198;20.908;2023-05-16T04:52:07;99612.00;;;15.30
45850;BMP180;10739;52.198;20.908;2023-05-16T04:54:34;99603.00;;;15.60
45850;BMP180;10739;52.198;20.908;2023-05-16T04:57:01;99602.00;;;16.00
45850;BMP180;10739;52.198;20.908;2023-05-16T04:59:27;99617.00;;;16.50
45850;BMP180;10739;52.198;20.908;2023-05-16T05:01:53;99627.00;;;15.80
45850;BMP180;10739;52.198;20.908;2023-05-16T05:04:19;99632.00;;;15.60
45850;BMP180;10739;52.198;20.908;2023-05-16T05:06:47;99631.00;;;15.80
45850;BMP180;10739;52.198;20.908;2023-05-16T05:09:14;99625.00;;;15.70
45850;BMP180;10739;52.198;20.908;2023-05-16T05:11:40;99626.00;;;15.70
45850;BMP180;10739;52.198;20.908;2023-05-16T05:14:06;99622.00;;;15.90
45850;BMP180;10739;52.198;20.908;2023-05-16T05:16:33;99620.00;;;15.90
45850;BMP180;10739;52.198;20.908;2023-05-16T05:19:00;99621.00;;;16.10
45850;BMP180;10739;52.198;20.908;2023-05-16T05:21:26;99610.00;;;16.00
45850;BMP180;10739;52.198;20.908;2023-05-16T05:23:52;99619.00;;;16.50
45850;BMP180;10739;52.198;20.908;2023-05-16T05:26:18;99625.00;;;16.40
45850;BMP180;10739;52.198;20.908;2023-05-16T05:28:47;99632.00;;;16.40
45850;BMP180;10739;52.198;20.908;2023-05-16T05:31:14;99629.00;;;16.70
45850;BMP180;10739;52.198;20.908;2023-05-16T05:33:40;99631.00;;;16.50
45850;BMP180;10739;52.198;20.908;2023-05-16T05:36:07;99640.00;;;16.40
45850;BMP180;10739;52.198;20.908;2023-05-16T05:38:34;99657.00;;;16.20
45850;BMP180;10739;52.198;20.908;2023-05-16T05:41:00;99651.00;;;16.70
45850;BMP180;10739;52.198;20.908;2023-05-16T05:43:26;99655.00;;;16.80
45850;BMP180;10739;52.198;20.908;2023-05-16T05:45:53;99655.00;;;16.30
45850;BMP180;10739;52.198;20.908;2023-05-16T05:48:20;99664.00;;;16.80
45850;BMP180;10739;52.198;20.908;2023-05-16T05:50:46;99665.00;;;16.70
45850;BMP180;10739;52.198;20.908;2023-05-16T05:53:13;99672.00;;;16.70
45850;BMP180;10739;52.198;20.908;2023-05-16T05:55:39;99670.00;;;16.70
45850;BMP180;10739;52.198;20.908;2023-05-16T05:58:07;99691.00;;;16.50
45850;BMP180;10739;52.198;20.908;2023-05-16T06:00:33;99694.00;;;16.80
45850;BMP180;10739;52.198;20.908;2023-05-16T06:02:59;99690.00;;;16.40
45850;BMP180;10739;52.198;20.908;2023-05-16T06:05:26;99699.00;;;16.30
45850;BMP180;10739;52.198;20.908;2023-05-16T06:07:52;99703.00;;;16.30
45850;BMP180;10739;52.198;20.908;2023-05-16T06:10:19;99698.00;;;17.00
45850;BMP180;10739;52.198;20.908;2023-05-16T06:12:45;99714.00;;;16.50
45850;BMP180;10739;52.198;20.908;2023-05-16T06:15:11;99727.00;;;16.90
45850;BMP180;10739;52.198;20.908;2023-05-16T06:17:37;99720.00;;;16.30
45850;BMP180;10739;52.198;20.908;2023-05-16T06:20:05;99734.00;;;17.10
45850;BMP180;10739;52.198;20.908;2023-05-16T06:22:31;99736.00;;;17.00
45850;BMP180;10739;52.198;20.908;2023-05-16T06:24:57;99743.00;;;17.00
45850;BMP180;10739;52.198;20.908;2023-05-16T06:27:25;99742.00;;;16.80
45850;BMP180;10739;52.198;20.908;2023-05-16T06:29:51;99745.00;;;16.40
45850;BMP180;10739;52.198;20.908;2023-05-16T06:32:17;99750.00;;;16.60
45850;BMP180;10739;52.198;20.908;2023-05-16T06:34:44;99771.00;;;16.80
45850;BMP180;10739;52.198;20.908;2023-05-16T06:37:10;99754.00;;;16.60
45850;BMP180;10739;52.198;20.908;2023-05-16T06:39:36;99759.00;;;16.80
45850;BMP180;10739;52.198;20.908;2023-05-16T06:42:03;99764.00;;;16.30
45850;BMP180;10739;52.198;20.908;2023-05-16T06:44:29;99777.00;;;16.20
45850;BMP180;10739;52.198;20.908;2023-05-16T06:46:55;99770.00;;;15.90
45850;BMP180;10739;52.198;20.908;2023-05-16T06:49:22;99784.00;;;17.00
45850;BMP180;10739;52.198;20.908;2023-05-16T06:51:48;99793.00;;;16.80
45850;BMP180;10739;52.198;20.908;2023-05-16T06:54:14;99784.00;;;16.70
45850;BMP180;10739;52.198;20.908;2023-05-16T06:56:41;99787.00;;;16.40
45850;BMP180;10739;52.198;20.908;2023-05-16T06:59:07;99795.00;;;16.70
45850;BMP180;10739;52.198;20.908;2023-05-16T07:01:34;99799.00;;;16.60
45850;BMP180;10739;52.198;20.908;2023-05-16T07:04:00;99799.00;;;16.70
45850;BMP180;10739;52.198;20.908;2023-05-16T07:06:26;99799.00;;;16.50
45850;BMP180;10739;52.198;20.908;2023-05-16T07:08:52;99807.00;;;16.00
45850;BMP180;10739;52.198;20.908;2023-05-16T07:11:19;99817.00;;;16.00
45850;BMP180;10739;52.198;20.908;2023-05-16T07:13:46;99824.00;;;16.00
45850;BMP180;10739;52.198;20.908;2023-05-16T07:16:13;99827.00;;;16.50
45850;BMP180;10739;52.198;20.908;2023-05-16T07:18:39;99835.00;;;17.00
45850;BMP180;10739;52.198;20.908;2023-05-16T07:21:06;99837.00;;;16.60
45850;BMP180;10739;52.198;20.908;2023-05-16T07:23:33;99850.00;;;16.60
45850;BMP180;10739;52.198;20.908;2023-05-16T07:25:59;99836.00;;;16.90
45850;BMP180;10739;52.198;20.908;2023-05-16T07:28:25;99848.00;;;17.10
45850;BMP180;10739;52.198;20.908;2023-05-16T07:30:52;99849.00;;;16.70
45850;BMP180;10739;52.198;20.908;2023-05-16T07:33:18;99861.00;;;16.70
45850;BMP180;10739;52.198;20.908;2023-05-16T07:35:44;99856.00;;;16.70
45850;BMP180;10739;52.198;20.908;2023-05-16T07:38:11;99864.00;;;16.80
45850;BMP180;10739;52.198;20.908;2023-05-16T07:40:38;99864.00;;;17.30
45850;BMP180;10739;52.198;20.908;2023-05-16T07:43:04;99862.00;;;17.50
45850;BMP180;10739;52.198;20.908;2023-05-16T07:45:30;99864.00;;;17.60
45850;BMP180;10739;52.198;20.908;2023-05-16T07:47:57;99871.00;;;18.10
45850;BMP180;10739;52.198;20.908;2023-05-16T07:50:25;99882.00;;;17.70
45850;BMP180;10739;52.198;20.908;2023-05-16T07:52:51;99872.00;;;17.80
45850;BMP180;10739;52.198;20.908;2023-05-16T07:55:17;99876.00;;;17.80
45850;BMP180;10739;52.198;20.908;2023-05-16T07:57:44;99876.00;;;17.70
45850;BMP180;10739;52.198;20.908;2023-05-16T08:00:11;99877.00;;;17.80
45850;BMP180;10739;52.198;20.908;2023-05-16T08:02:37;99888.00;;;17.50
45850;BMP180;10739;52.198;20.908;2023-05-16T08:05:05;99880.00;;;17.30
45850;BMP180;10739;52.198;20.908;2023-05-16T08:07:32;99878.00;;;18.20
45850;BMP180;10739;52.198;20.908;2023-05-16T08:09:58;99888.00;;;17.50
45850;BMP180;10739;52.198;20.908;2023-05-16T08:12:25;99887.00;;;17.60
45850;BMP180;10739;52.198;20.908;2023-05-16T08:14:52;99889.00;;;17.70
45850;BMP180;10739;52.198;20.908;2023-05-16T08:17:18;99889.00;;;17.80
45850;BMP180;10739;52.198;20.908;2023-05-16T08:19:44;99886.00;;;18.30
45850;BMP180;10739;52.198;20.908;2023-05-16T08:22:11;99894.00;;;17.70
45850;BMP180;10739;52.198;20.908;2023-05-16T08:24:37;99889.00;;;17.70
45850;BMP180;10739;52.198;20.908;2023-05-16T08:27:04;99892.00;;;17.40
45850;BMP180;10739;52.198;20.908;2023-05-16T08:29:30;99891.00;;;17.40
45850;BMP180;10739;52.198;20.908;2023-05-16T08:31:56;99886.00;;;17.70
45850;BMP180;10739;52.198;20.908;2023-05-16T08:34:23;99888.00;;;17.70
45850;BMP180;10739;52.198;20.908;2023-05-16T08:36:49;99891.00;;;17.90
45850;BMP180;10739;52.198;20.908;2023-05-16T08:39:15;99880.00;;;18.40
45850;BMP180;10739;52.198;20.908;2023-05-16T08:41:42;99890.00;;;18.20
45850;BMP180;10739;52.198;20.908;2023-05-16T08:44:08;99887.00;;;18.20
45850;BMP180;10739;52.198;20.908;2023-05-16T08:46:41;99887.00;;;18.20
45850;BMP180;10739;52.198;20.908;2023-05-16T08:49:10;99898.00;;;18.50
45850;BMP180;10739;52.198;20.908;2023-05-16T08:51:37;99897.00;;;18.50
45850;BMP180;10739;52.198;20.908;2023-05-16T08:54:10;99889.00;;;18.70
45850;BMP180;10739;52.198;20.908;2023-05-16T08:56:40;99894.00;;;18.40
45850;BMP180;10739;52.198;20.908;2023-05-16T08:59:07;99904.00;;;18.90
45850;BMP180;10739;52.198;20.908;2023-05-16T09:01:33;99908.00;;;18.10
45850;BMP180;10739;52.198;20.908;2023-05-16T09:04:07;99916.00;;;18.10
45850;BMP180;10739;52.198;20.908;2023-05-16T09:06:36;99913.00;;;18.20
45850;BMP180;10739;52.198;20.908;2023-05-16T09:09:04;99910.00;;;18.20
45850;BMP180;10739;52.198;20.908;2023-05-16T09:11:46;99900.00;;;18.10
45850;BMP180;10739;52.198;20.908;2023-05-16T09:14:13;99906.00;;;18.30
45850;BMP180;10739;52.198;20.908;2023-05-16T09:17:03;99910.00;;;18.40
45850;BMP180;10739;52.198;20.908;2023-05-16T09:19:48;99911.00;;;19.00
45850;BMP180;10739;52.198;20.908;2023-05-16T09:22:18;99911.00;;;18.50
45850;BMP180;10739;52.198;20.908;2023-05-16T09:24:45;99917.00;;;18.80
45850;BMP180;10739;52.198;20.908;2023-05-16T09:27:14;99924.00;;;19.40
45850;BMP180;10739;52.198;20.908;2023-05-16T09:29:42;99928.00;;;19.60
45850;BMP180;10739;52.198;20.908;2023-05-16T09:32:14;99938.00;;;20.10
45850;BMP180;10739;52.198;20.908;2023-05-16T09:34:48;99935.00;;;20.40
45850;BMP180;10739;52.198;20.908;2023-05-16T09:37:17;99942.00;;;19.40
45850;BMP180;10739;52.198;20.908;2023-05-16T09:39:52;99947.00;;;18.70
45850;BMP180;10739;52.198;20.908;2023-05-16T09:42:20;99948.00;;;19.20
45850;BMP180;10739;52.198;20.908;2023-05-16T09:44:53;99957.00;;;19.30
45850;BMP180;10739;52.198;20.908;2023-05-16T09:47:21;99965.00;;;19.10
45850;BMP180;10739;52.198;20.908;2023-05-16T09:49:52;99962.00;;;19.00
45850;BMP180;10739;52.198;20.908;2023-05-16T09:52:19;99975.00;;;19.00
45850;BMP180;10739;52.198;20.908;2023-05-16T09:54:46;99977.00;;;19.20
45850;BMP180;10739;52.198;20.908;2023-05-16T09:57:20;99975.00;;;19.20
45850;BMP180;10739;52.198;20.908;2023-05-16T09:59:51;99982.00;;;19.00
45850;BMP180;10739;52.198;20.908;2023-05-16T10:02:18;99989.00;;;19.50
45850;BMP180;10739;52.198;20.908;2023-05-16T10:04:45;99994.00;;;19.40
45850;BMP180;10739;52.198;20.908;2023-05-16T10:07:11;100002.00;;;19.80
45850;BMP180;10739;52.198;20.908;2023-05-16T10:09:41;100001.00;;;19.30
45850;BMP180;10739;52.198;20.908;2023-05-16T10:12:10;99997.00;;;19.30
45850;BMP180;10739;52.198;20.908;2023-05-16T10:14:40;100003.00;;;19.80
45850;BMP180;10739;52.198;20.908;2023-05-16T10:17:11;100005.00;;;20.30
45850;BMP180;10739;52.198;20.908;2023-05-16T10:19:39;100013.00;;;20.20
45850;BMP180;10739;52.198;20.908;2023-05-16T10:22:07;100011.00;;;20.20
45850;BMP180;10739;52.198;20.908;2023-05-16T10:24:53;100009.00;;;20.60
45850;BMP180;10739;52.198;20.908;2023-05-16T10:27:24;100010.00;;;20.50
45850;BMP180;10739;52.198;20.908;2023-05-16T10:29:51;100023.00;;;19.40
45850;BMP180;10739;52.198;20.908;2023-05-16T10:32:19;100025.00;;;19.50
45850;BMP180;10739;52.198;20.908;2023-05-16T10:34:47;100029.00;;;19.50
45850;BMP180;10739;52.198;20.908;2023-05-16T10:37:14;100034.00;;;19.30
45850;BMP180;10739;52.198;20.908;2023-05-16T10:39:40;100031.00;;;19.30
45850;BMP180;10739;52.198;20.908;2023-05-16T10:42:07;100029.00;;;19.10
45850;BMP180;10739;52.198;20.908;2023-05-16T10:44:34;100028.00;;;19.60
45850;BMP180;10739;52.198;20.908;2023-05-16T10:47:04;100026.00;;;19.50
45850;BMP180;10739;52.198;20.908;2023-05-16T10:49:30;100027.00;;;20.00
45850;BMP180;10739;52.198;20.908;2023-05-16T10:52:10;100035.00;;;20.10
45850;BMP180;10739;52.198;20.908;2023-05-16T10:54:43;100032.00;;;20.60
45850;BMP180;10739;52.198;20.908;2023-05-16T10:57:18;100032.00;;;20.00
45850;BMP180;10739;52.198;20.908;2023-05-16T10:59:48;100028.00;;;19.50
45850;BMP180;10739;52.198;20.908;2023-05-16T11:02:30;100023.00;;;20.40
45850;BMP180;10739;52.198;20.908;2023-05-16T11:05:01;100027.00;;;20.20
45850;BMP180;10739;52.198;20.908;2023-05-16T11:07:34;100031.00;;;20.30
45850;BMP180;10739;52.198;20.908;2023-05-16T11:10:06;100037.00;;;20.10
45850;BMP180;10739;52.198;20.908;2023-05-16T11:12:48;100045.00;;;20.10
45850;BMP180;10739;52.198;20.908;2023-05-16T11:15:25;100042.00;;;20.70
45850;BMP180;10739;52.198;20.908;2023-05-16T11:18:13;100051.00;;;20.20
45850;BMP180;10739;52.198;20.908;2023-05-16T11:20:41;100050.00;;;20.10
45850;BMP180;10739;52.198;20.908;2023-05-16T11:23:21;100057.00;;;20.60
45850;BMP180;10739;52.198;20.908;2023-05-16T11:25:52;100045.00;;;20.80
45850;BMP180;10739;52.198;20.908;2023-05-16T11:28:20;100054.00;;;21.00
45850;BMP180;10739;52.198;20.908;2023-05-16T11:30:57;100062.00;;;20.80
45850;BMP180;10739;52.198;20.908;2023-05-16T11:33:24;100061.00;;;20.40
45850;BMP180;10739;52.198;20.908;2023-05-16T11:36:04;100070.00;;;20.20
45850;BMP180;10739;52.198;20.908;2023-05-16T11:38:32;100076.00;;;20.80
45850;BMP180;10739;52.198;20.908;2023-05-16T11:41:07;100074.00;;;20.50
45850;BMP180;10739;52.198;20.908;2023-05-16T11:43:44;100070.00;;;20.70
45850;BMP180;10739;52.198;20.908;2023-05-16T11:46:15;100078.00;;;21.40
45850;BMP180;10739;52.198;20.908;2023-05-16T11:48:42;100074.00;;;21.80
45850;BMP180;10739;52.198;20.908;2023-05-16T11:51:11;100084.00;;;21.30
45850;BMP180;10739;52.198;20.908;2023-05-16T11:53:39;100079.00;;;21.60
45850;BMP180;10739;52.198;20.908;2023-05-16T11:56:07;100077.00;;;22.20
45850;BMP180;10739;52.198;20.908;2023-05-16T11:58:33;100077.00;;;22.20
45850;BMP180;10739;52.198;20.908;2023-05-16T12:01:03;100088.00;;;21.80
45850;BMP180;10739;52.198;20.908;2023-05-16T12:03:30;100085.00;;;22.00
45850;BMP180;10739;52.198;20.908;2023-05-16T12:06:01;100074.00;;;22.30
45850;BMP180;10739;52.198;20.908;2023-05-16T12:08:27;100083.00;;;22.70
45850;BMP180;10739;52.198;20.908;2023-05-16T12:10:54;100082.00;;;22.80
45850;BMP180;10739;52.198;20.908;2023-05-16T12:13:23;100069.00;;;22.60
45850;BMP180;10739;52.198;20.908;2023-05-16T12:15:50;100075.00;;;23.30
45850;BMP180;10739;52.198;20.908;2023-05-16T12:18:20;100081.00;;;22.20
45850;BMP180;10739;52.198;20.908;2023-05-16T12:20:48;100082.00;;;22.50
45850;BMP180;10739;52.198;20.908;2023-05-16T12:23:15;100080.00;;;22.30
45850;BMP180;10739;52.198;20.908;2023-05-16T12:25:46;100089.00;;;21.80
45850;BMP180;10739;52.198;20.908;2023-05-16T12:28:14;100091.00;;;22.00
45850;BMP180;10739;52.198;20.908;2023-05-16T12:30:43;100084.00;;;21.80
45850;BMP180;10739;52.198;20.908;2023-05-16T12:33:13;100087.00;;;22.30
45850;BMP180;10739;52.198;20.908;2023-05-16T12:35:42;100088.00;;;22.80
45850;BMP180;10739;52.198;20.908;2023-05-16T12:38:15;100091.00;;;22.80
45850;BMP180;10739;52.198;20.908;2023-05-16T12:40:43;100087.00;;;22.60
45850;BMP180;10739;52.198;20.908;2023-05-16T12:43:21;100092.00;;;21.80
45850;BMP180;10739;52.198;20.908;2023-05-16T12:45:56;100096.00;;;21.10
45850;BMP180;10739;52.198;20.908;2023-05-16T12:48:31;100097.00;;;21.90
45850;BMP180;10739;52.198;20.908;2023-05-16T12:51:15;100100.00;;;21.80
45850;BMP180;10739;52.198;20.908;2023-05-16T12:53:44;100102.00;;;22.50
45850;BMP180;10739;52.198;20.908;2023-05-16T12:56:13;100095.00;;;22.10
45850;BMP180;10739;52.198;20.908;2023-05-16T12:58:41;100094.00;;;22.40
45850;BMP180;10739;52.198;20.908;2023-05-16T13:01:08;100097.00;;;21.70
45850;BMP180;10739;52.198;20.908;2023-05-16T13:03:35;100097.00;;;21.80
45850;BMP180;10739;52.198;20.908;2023-05-16T13:06:02;100097.00;;;22.00
45850;BMP180;10739;52.198;20.908;2023-05-16T13:08:29;100089.00;;;21.30
45850;BMP180;10739;52.198;20.908;2023-05-16T13:10:55;100096.00;;;22.00
45850;BMP180;10739;52.198;20.908;2023-05-16T13:13:22;100095.00;;;21.90
45850;BMP180;10739;52.198;20.908;2023-05-16T13:15:48;100095.00;;;21.70
45850;BMP180;10739;52.198;20.908;2023-05-16T13:18:14;100096.00;;;22.70
45850;BMP180;10739;52.198;20.908;2023-05-16T13:20:40;100095.00;;;23.10
45850;BMP180;10739;52.198;20.908;2023-05-16T13:23:07;100104.00;;;23.30
45850;BMP180;10739;52.198;20.908;2023-05-16T13:25:33;100104.00;;;23.40
45850;BMP180;10739;52.198;20.908;2023-05-16T13:28:00;100100.00;;;23.50
45850;BMP180;10739;52.198;20.908;2023-05-16T13:30:26;100103.00;;;23.20
45850;BMP180;10739;52.198;20.908;2023-05-16T13:32:53;100101.00;;;22.90
45850;BMP180;10739;52.198;20.908;2023-05-16T13:35:20;100104.00;;;23.30
45850;BMP180;10739;52.198;20.908;2023-05-16T13:37:46;100106.00;;;22.90
45850;BMP180;10739;52.198;20.908;2023-05-16T13:40:13;100102.00;;;23.70
45850;BMP180;10739;52.198;20.908;2023-05-16T13:42:39;100108.00;;;24.20
45850;BMP180;10739;52.198;20.908;2023-05-16T13:45:06;100108.00;;;24.20
45850;BMP180;10739;52.198;20.908;2023-05-16T13:47:32;100105.00;;;25.00
45850;BMP180;10739;52.198;20.908;2023-05-16T13:49:59;100107.00;;;25.40
45850;BMP180;10739;52.198;20.908;2023-05-16T13:52:31;100090.00;;;25.70
45850;BMP180;10739;52.198;20.908;2023-05-16T13:54:57;100093.00;;;25.10
45850;BMP180;10739;52.198;20.908;2023-05-16T13:57:23;100102.00;;;24.30
45850;BMP180;10739;52.198;20.908;2023-05-16T13:59:52;100101.00;;;24.40
45850;BMP180;10739;52.198;20.908;2023-05-16T14:02:19;100103.00;;;24.90
45850;BMP180;10739;52.198;20.908;2023-05-16T14:04:45;100105.00;;;25.00
45850;BMP180;10739;52.198;20.908;2023-05-16T14:07:12;100109.00;;;25.30
45850;BMP180;10739;52.198;20.908;2023-05-16T14:09:38;100118.00;;;25.40
45850;BMP180;10739;52.198;20.908;2023-05-16T14:12:05;100112.00;;;24.90